Novo Oriente, Brazil
Current Conditions -  °F | °C
As of 4:00 AM on Friday 24 Oct 2014 (Local Time) from SBTE Reporting Station
Clear Clear  
Wind Chill: 79°   Ceiling: Unl
Heat Index: 82°   Visibility: 6mi
Dew Point: 75°   Wind: 5mph
Humidity: 89%   Direction: 330°NNW
Pressure: 29.77"   Gusts: NA
Location:  5.53°S, 40.77°W
Report Text: SBTE 240700Z 33004KT CAVOK 26/24 Q1008
Loading
Personal Weather Stations






























Interactive Weather Map
Tropical Storm Tracking
New forecast layout! Learn more

10-Day Weather Forecast

Advertisements
Track Severe Weather on mobile